Time;durP1;ratioP1;P1;durP2;ratioP2;P2;SDS_P1;SDS_P2;PMS_P1;PMS_P2;Temp;Humidity;BMP_temperature;BMP_pressure;BME280_temperature;BME280_humidity;BME280_pressure;Samples;Min_cycle;Max_cycle;Signal;HPM_P1;HPM_P2
2022/03/15 00:00:41;;;;;;;10.77;4.50;;;3.20;99.90;;;;;;5113147;28;20047;-74
2022/03/15 00:03:07;;;;;;;9.27;4.50;;;3.20;99.90;;;;;;5114646;28;20150;-74
2022/03/15 00:05:34;;;;;;;11.93;6.50;;;3.10;99.90;;;;;;5114507;28;20078;-74
2022/03/15 00:08:00;;;;;;;20.20;10.73;;;3.20;99.90;;;;;;5113712;28;20036;-74
2022/03/15 00:10:26;;;;;;;17.00;10.52;;;3.10;99.90;;;;;;5113982;28;20142;-74
2022/03/15 00:12:54;;;;;;;18.25;9.50;;;3.10;99.90;;;;;;5114652;28;20089;-74
2022/03/15 00:15:20;;;;;;;11.45;6.60;;;3.50;99.90;;;;;;5113275;28;20043;-74
2022/03/15 00:17:46;;;;;;;9.52;4.13;;;3.10;99.90;;;;;;5114644;28;20046;-74
2022/03/15 00:20:15;;;;;;;6.97;4.55;;;3.10;99.90;;;;;;5113607;28;20040;-74
2022/03/15 00:22:42;;;;;;;10.63;5.30;;;3.50;99.90;;;;;;5091692;28;20044;-74
2022/03/15 00:25:13;;;;;;;9.00;6.20;;;3.10;99.90;;;;;;5100732;28;20036;-74
2022/03/15 00:27:39;;;;;;;12.57;6.38;;;3.10;99.90;;;;;;5113601;28;20096;-74
2022/03/15 00:30:06;;;;;;;7.15;5.15;;;3.40;99.90;;;;;;5078632;28;20048;-74
2022/03/15 00:32:33;;;;;;;6.25;4.32;;;3.00;99.90;;;;;;5095977;28;20088;-74
2022/03/15 00:34:59;;;;;;;9.05;4.35;;;3.00;99.90;;;;;;5113158;28;20096;-74
2022/03/15 00:37:25;;;;;;;8.65;5.13;;;3.00;99.90;;;;;;5113815;28;20032;-74
2022/03/15 00:39:50;;;;;;;12.55;6.32;;;3.00;99.90;;;;;;5095656;28;20051;-74
2022/03/15 00:42:17;;;;;;;13.70;6.80;;;3.10;99.90;;;;;;5095029;28;20039;-74
2022/03/15 00:44:43;;;;;;;13.10;5.78;;;3.00;99.90;;;;;;5113953;28;20127;-74
2022/03/15 00:47:09;;;;;;;12.82;5.38;;;2.90;99.90;;;;;;5095558;28;20184;-74
2022/03/15 00:49:35;;;;;;;10.98;6.43;;;2.90;99.90;;;;;;5075931;28;20059;-74
2022/03/15 00:52:00;;;;;;;17.60;6.47;;;2.90;99.90;;;;;;5055132;28;20044;-73
2022/03/15 00:54:27;;;;;;;9.40;3.97;;;2.80;99.90;;;;;;5072279;28;20059;-74
2022/03/15 00:56:53;;;;;;;16.73;6.03;;;2.80;99.90;;;;;;5063499;28;20044;-74
2022/03/15 00:59:19;;;;;;;13.23;5.95;;;2.80;99.90;;;;;;5084891;28;20055;-73
2022/03/15 01:01:46;;;;;;;15.82;5.85;;;2.80;99.90;;;;;;5113605;28;20035;-73
2022/03/15 01:04:12;;;;;;;20.92;8.15;;;2.70;99.90;;;;;;5099498;28;20036;-73
2022/03/15 01:06:39;;;;;;;15.45;6.20;;;2.70;99.90;;;;;;5093577;28;20364;-73
2022/03/15 01:09:06;;;;;;;17.95;8.32;;;2.70;99.90;;;;;;5104799;28;20046;-73
2022/03/15 01:11:32;;;;;;;22.30;8.45;;;2.70;99.90;;;;;;5073314;28;20040;-74
2022/03/15 01:13:58;;;;;;;18.85;8.77;;;2.70;99.90;;;;;;5094336;28;20047;-74
2022/03/15 01:16:24;;;;;;;25.35;9.57;;;2.70;99.90;;;;;;5086953;28;20045;-74
2022/03/15 01:18:50;;;;;;;15.20;7.03;;;2.70;99.90;;;;;;5072135;28;20041;-74
2022/03/15 01:21:16;;;;;;;18.25;6.35;;;2.80;99.90;;;;;;5092405;28;20055;-74
2022/03/15 01:23:42;;;;;;;18.25;6.65;;;2.60;99.90;;;;;;5112836;28;20058;-73
2022/03/15 01:26:08;;;;;;;17.30;5.78;;;2.60;99.90;;;;;;5075038;28;20079;-74
2022/03/15 01:28:34;;;;;;;16.67;6.95;;;2.50;99.90;;;;;;5072847;28;20514;-73
2022/03/15 01:31:00;;;;;;;15.93;6.07;;;2.50;99.90;;;;;;5103001;28;20052;-74
2022/03/15 01:33:26;;;;;;;20.52;8.50;;;2.50;99.90;;;;;;5095399;28;20157;-74
2022/03/15 01:35:52;;;;;;;24.33;7.97;;;2.50;99.90;;;;;;5106554;28;20104;-74
2022/03/15 01:38:18;;;;;;;15.75;6.65;;;2.60;99.90;;;;;;5094684;28;20075;-74
2022/03/15 01:40:43;;;;;;;18.63;6.97;;;2.60;99.90;;;;;;5101198;28;20083;-74
2022/03/15 01:43:09;;;;;;;17.27;7.45;;;2.60;99.90;;;;;;5081507;28;20093;-74
2022/03/15 01:45:38;;;;;;;21.02;8.85;;;2.70;99.90;;;;;;5072159;28;20040;-74
2022/03/15 01:48:04;;;;;;;23.48;9.20;;;2.70;99.90;;;;;;5079869;28;20076;-74
2022/03/15 01:50:30;;;;;;;23.45;9.93;;;2.80;99.90;;;;;;5113177;28;20169;-74
2022/03/15 01:52:56;;;;;;;25.95;10.73;;;2.90;99.90;;;;;;5112152;28;20114;-74
2022/03/15 01:55:22;;;;;;;21.65;10.23;;;3.00;99.90;;;;;;5112777;28;20138;-74
2022/03/15 01:57:48;;;;;;;27.45;11.52;;;3.50;99.90;;;;;;5113072;28;20085;-73
2022/03/15 02:00:15;;;;;;;34.17;13.65;;;3.20;99.90;;;;;;5094066;28;20169;-74
2022/03/15 02:02:40;;;;;;;26.60;12.80;;;3.30;99.90;;;;;;5109699;28;20089;-73
2022/03/15 02:05:06;;;;;;;29.65;12.82;;;3.40;99.90;;;;;;5111997;28;20456;-74
2022/03/15 02:07:32;;;;;;;25.23;12.38;;;3.50;99.90;;;;;;5111600;28;20065;-74
2022/03/15 02:09:58;;;;;;;27.45;12.32;;;3.60;99.90;;;;;;5094417;28;20048;-74
2022/03/15 02:12:23;;;;;;;22.38;12.05;;;3.60;99.90;;;;;;5113410;28;20051;-73
2022/03/15 02:14:49;;;;;;;20.73;11.43;;;4.20;99.90;;;;;;5097891;28;20509;-74
2022/03/15 02:17:15;;;;;;;28.42;11.75;;;3.80;99.90;;;;;;5098325;28;20054;-74
2022/03/15 02:19:43;;;;;;;24.73;11.30;;;4.00;99.90;;;;;;5082043;28;20063;-74
2022/03/15 02:22:09;;;;;;;31.63;11.60;;;3.90;99.90;;;;;;5115419;28;20054;-74
2022/03/15 02:24:35;;;;;;;23.60;11.63;;;4.30;99.90;;;;;;5116898;28;20110;-73
2022/03/15 02:27:01;;;;;;;28.67;12.32;;;4.50;99.90;;;;;;5115424;28;20036;-74
2022/03/15 02:29:27;;;;;;;24.90;12.77;;;4.00;99.90;;;;;;5116062;28;20051;-74
2022/03/15 02:31:53;;;;;;;30.08;13.10;;;4.40;99.90;;;;;;5116356;28;20482;-74
2022/03/15 02:34:19;;;;;;;26.70;12.32;;;4.10;99.90;;;;;;5115594;28;20142;-74
2022/03/15 02:36:45;;;;;;;21.90;11.05;;;4.10;99.90;;;;;;5116102;28;20036;-74
2022/03/15 02:39:12;;;;;;;26.02;13.18;;;4.10;99.90;;;;;;5116049;28;20065;-73
2022/03/15 02:41:37;;;;;;;28.95;12.60;;;4.40;99.90;;;;;;5115389;28;20044;-74
2022/03/15 02:44:03;;;;;;;24.75;10.85;;;4.20;99.90;;;;;;5116289;28;20050;-74
2022/03/15 02:46:33;;;;;;;28.67;12.23;;;4.20;99.90;;;;;;5115548;28;20046;-73
2022/03/15 02:48:59;;;;;;;29.98;10.82;;;4.30;99.90;;;;;;5115152;28;20055;-74
2022/03/15 02:51:25;;;;;;;29.35;12.13;;;4.30;99.90;;;;;;5097929;28;20116;-74
2022/03/15 02:53:52;;;;;;;26.52;11.50;;;4.30;99.90;;;;;;5115943;28;20436;-74
2022/03/15 02:56:19;;;;;;;22.63;10.10;;;4.40;99.90;;;;;;5115055;28;20054;-74
2022/03/15 02:58:45;;;;;;;21.50;10.93;;;4.40;99.90;;;;;;5115592;28;20371;-74
2022/03/15 03:01:11;;;;;;;28.58;12.98;;;4.40;99.90;;;;;;5097800;28;20105;-73
2022/03/15 03:03:37;;;;;;;20.80;9.77;;;4.50;99.90;;;;;;5096880;28;20052;-74
2022/03/15 03:06:03;;;;;;;25.20;11.43;;;4.50;99.90;;;;;;5115758;28;20027;-73
2022/03/15 03:08:30;;;;;;;29.25;11.77;;;4.40;99.90;;;;;;5096632;28;20051;-74
2022/03/15 03:10:57;;;;;;;24.70;11.93;;;4.70;99.90;;;;;;5114968;28;20055;-74
2022/03/15 03:13:26;;;;;;;23.10;10.50;;;4.90;99.90;;;;;;5115572;28;20043;-74
2022/03/15 03:15:57;;;;;;;34.75;11.20;;;4.50;99.90;;;;;;5115291;28;20433;-74
2022/03/15 03:18:28;;;;;;;21.05;10.70;;;4.60;99.90;;;;;;5114736;28;20359;-74
2022/03/15 03:20:54;;;;;;;25.67;10.70;;;4.60;99.90;;;;;;5115476;28;20040;-74
2022/03/15 03:23:21;;;;;;;25.35;10.07;;;4.80;99.90;;;;;;5096167;28;20043;-74
2022/03/15 03:25:47;;;;;;;28.40;10.80;;;5.00;99.90;;;;;;5115483;28;20043;-74
2022/03/15 03:28:13;;;;;;;25.35;10.60;;;4.70;99.90;;;;;;5115243;28;20039;-74
2022/03/15 03:30:46;;;;;;;31.30;12.27;;;4.70;99.90;;;;;;5114001;28;20414;-74
2022/03/15 03:33:15;;;;;;;30.35;11.27;;;4.80;99.90;;;;;;5115273;28;20482;-74
2022/03/15 03:35:43;;;;;;;25.48;11.07;;;4.80;99.90;;;;;;5115434;28;20047;-74
2022/03/15 03:38:10;;;;;;;27.23;10.80;;;4.80;99.90;;;;;;5114023;28;20451;-74
2022/03/15 03:40:35;;;;;;;26.42;10.27;;;4.80;99.90;;;;;;5097287;28;20428;-74
2022/03/15 03:43:02;;;;;;;23.30;10.52;;;4.80;99.90;;;;;;5114785;28;20044;-74
2022/03/15 03:45:27;;;;;;;24.58;10.27;;;4.90;99.90;;;;;;5114528;28;20043;-74
2022/03/15 03:47:53;;;;;;;22.02;10.18;;;4.80;99.90;;;;;;5096099;28;20497;-74
2022/03/15 03:50:19;;;;;;;20.42;10.95;;;4.90;99.90;;;;;;5096677;28;20059;-74
2022/03/15 03:52:45;;;;;;;24.27;10.02;;;5.20;99.90;;;;;;5094463;28;20047;-74
2022/03/15 03:55:11;;;;;;;24.90;11.18;;;5.30;99.90;;;;;;5096478;28;20093;-74
2022/03/15 03:57:37;;;;;;;27.55;12.02;;;4.90;99.90;;;;;;5114593;28;20040;-74
2022/03/15 04:00:06;;;;;;;25.10;11.70;;;4.90;99.90;;;;;;5113851;28;20047;-74
2022/03/15 04:02:32;;;;;;;23.17;10.18;;;4.90;99.90;;;;;;5114459;28;20497;-74
2022/03/15 04:04:58;;;;;;;32.13;11.20;;;4.90;99.90;;;;;;5114182;28;20491;-74
2022/03/15 04:07:24;;;;;;;23.70;10.98;;;5.00;99.90;;;;;;5095068;28;20173;-74
2022/03/15 04:09:50;;;;;;;20.83;12.48;;;5.30;99.90;;;;;;5095533;28;20108;-74
2022/03/15 04:12:20;;;;;;;28.52;11.32;;;5.00;99.90;;;;;;5113058;28;20051;-74
2022/03/15 04:14:46;;;;;;;22.60;11.13;;;5.00;99.90;;;;;;5113825;28;20043;-74
2022/03/15 04:17:13;;;;;;;19.50;11.20;;;5.20;99.90;;;;;;5096294;28;20398;-74
2022/03/15 04:19:39;;;;;;;26.35;12.27;;;5.10;99.90;;;;;;5113758;28;20032;-74
2022/03/15 04:22:05;;;;;;;20.70;11.60;;;5.10;99.90;;;;;;5114203;28;20043;-74
2022/03/15 04:24:32;;;;;;;23.33;11.65;;;5.10;99.90;;;;;;5114550;28;20040;-73
2022/03/15 04:26:59;;;;;;;25.13;11.55;;;5.20;99.90;;;;;;5112637;28;20494;-74
2022/03/15 04:29:28;;;;;;;22.45;12.50;;;5.20;99.90;;;;;;5096069;28;20054;-74
2022/03/15 04:31:54;;;;;;;27.63;14.43;;;5.20;99.90;;;;;;5114122;28;20402;-74
2022/03/15 04:34:20;;;;;;;27.85;14.35;;;5.20;99.90;;;;;;5113130;28;20126;-74
2022/03/15 04:36:46;;;;;;;29.25;13.73;;;5.20;99.90;;;;;;5094722;28;20043;-74
2022/03/15 04:39:12;;;;;;;26.77;13.25;;;5.50;99.90;;;;;;5114306;28;20043;-74
2022/03/15 04:41:39;;;;;;;27.40;12.98;;;5.30;99.90;;;;;;5093621;28;20565;-74
2022/03/15 04:44:06;;;;;;;25.23;13.43;;;5.20;99.90;;;;;;5113740;28;20039;-74
2022/03/15 04:46:32;;;;;;;28.75;13.27;;;5.20;99.90;;;;;;5113950;28;20054;-74
2022/03/15 04:48:58;;;;;;;28.60;12.95;;;5.40;99.90;;;;;;5113135;28;20142;-74
2022/03/15 04:51:25;;;;;;;24.23;12.07;;;5.50;99.90;;;;;;5095466;28;20185;-74
2022/03/15 04:53:52;;;;;;;28.10;13.10;;;5.20;99.90;;;;;;5095717;28;20051;-74
2022/03/15 04:56:18;;;;;;;26.02;12.02;;;5.50;99.90;;;;;;5112353;28;20035;-74
2022/03/15 04:58:44;;;;;;;30.80;14.38;;;5.10;99.90;;;;;;5095240;28;20047;-74
2022/03/15 05:01:11;;;;;;;31.27;13.70;;;5.10;99.90;;;;;;5114129;28;20458;-74
2022/03/15 05:03:37;;;;;;;26.90;12.60;;;5.10;99.90;;;;;;5094635;28;20097;-74
2022/03/15 05:06:03;;;;;;;27.10;11.95;;;5.10;99.90;;;;;;5114014;28;20047;-73
2022/03/15 05:08:29;;;;;;;21.88;11.20;;;5.00;99.90;;;;;;5095510;28;20040;-74
2022/03/15 05:11:08;;;;;;;28.85;12.75;;;4.90;99.90;;;;;;5094175;28;20047;-74
2022/03/15 05:13:40;;;;;;;24.15;11.52;;;4.90;99.90;;;;;;5113399;28;20044;-74
2022/03/15 05:16:18;;;;;;;28.38;12.50;;;4.80;99.90;;;;;;5099814;28;20634;-74
2022/03/15 05:18:50;;;;;;;22.90;10.98;;;4.80;99.90;;;;;;5096967;28;20386;-74
2022/03/15 05:21:16;;;;;;;24.17;12.35;;;4.80;99.90;;;;;;5113914;28;20036;-74
2022/03/15 05:23:46;;;;;;;21.48;12.45;;;4.80;99.90;;;;;;5112633;28;20055;-74
2022/03/15 05:26:14;;;;;;;24.23;13.10;;;4.90;99.90;;;;;;5095203;28;20351;-74
2022/03/15 05:28:40;;;;;;;26.52;13.32;;;5.30;99.90;;;;;;5113520;28;20044;-74
2022/03/15 05:31:06;;;;;;;38.05;21.00;;;4.90;99.90;;;;;;5094235;28;20051;-74
2022/03/15 05:33:33;;;;;;;77.30;33.80;;;4.70;99.90;;;;;;5112934;28;20048;-74
2022/03/15 05:35:59;;;;;;;60.65;32.58;;;5.00;99.90;;;;;;5113226;28;20043;-74
2022/03/15 05:38:24;;;;;;;30.42;13.93;;;4.70;99.90;;;;;;5094241;28;20044;-74
2022/03/15 05:40:50;;;;;;;24.55;12.57;;;4.70;99.90;;;;;;5113610;28;20118;-74
2022/03/15 05:43:17;;;;;;;31.20;13.52;;;4.70;99.90;;;;;;5095008;28;20039;-74
2022/03/15 05:45:43;;;;;;;29.13;13.52;;;5.10;99.90;;;;;;5090509;28;20063;-74
2022/03/15 05:48:08;;;;;;;26.33;12.73;;;4.60;99.90;;;;;;5077191;28;20059;-74
2022/03/15 05:50:34;;;;;;;27.17;13.52;;;4.60;99.90;;;;;;5096857;28;20410;-74
2022/03/15 05:53:05;;;;;;;26.05;14.02;;;4.50;99.90;;;;;;5099088;28;20035;-74
2022/03/15 05:55:35;;;;;;;24.15;14.13;;;4.60;99.90;;;;;;5099342;28;20445;-74
2022/03/15 05:58:01;;;;;;;29.55;15.35;;;4.60;99.90;;;;;;5113679;28;20398;-74
2022/03/15 06:00:29;;;;;;;30.25;14.45;;;4.60;99.90;;;;;;5095992;28;20368;-74
2022/03/15 06:02:55;;;;;;;34.35;14.57;;;4.70;99.90;;;;;;5062584;28;20130;-74
2022/03/15 06:05:21;;;;;;;34.70;16.77;;;4.70;99.90;;;;;;5116170;28;20071;-74
2022/03/15 06:07:49;;;;;;;40.20;17.73;;;4.70;99.90;;;;;;5098648;28;20040;-74
2022/03/15 06:10:17;;;;;;;32.95;15.07;;;4.80;99.90;;;;;;5096680;28;20047;-74
2022/03/15 06:12:43;;;;;;;38.08;16.88;;;4.70;99.90;;;;;;5106487;28;20059;-74
2022/03/15 06:15:10;;;;;;;30.23;15.13;;;4.70;99.90;;;;;;5075471;28;20040;-74
2022/03/15 06:18:03;;;;;;;33.78;15.88;;;4.80;99.90;;;;;;5075416;28;20486;-74
2022/03/15 06:20:29;;;;;;;40.65;16.88;;;4.80;99.90;;;;;;5092136;28;20048;-74
2022/03/15 06:22:55;;;;;;;32.22;15.45;;;4.90;99.90;;;;;;5113952;28;20039;-73
2022/03/15 06:25:21;;;;;;;35.47;15.52;;;4.90;99.90;;;;;;5109125;28;20067;-74
2022/03/15 06:27:48;;;;;;;33.88;16.33;;;4.90;99.90;;;;;;5109992;28;20540;-73
2022/03/15 06:30:17;;;;;;;30.52;15.32;;;5.00;99.90;;;;;;5095092;28;20089;-74
2022/03/15 06:32:43;;;;;;;32.22;14.75;;;5.00;99.90;;;;;;5078021;28;20086;-74
2022/03/15 06:35:10;;;;;;;36.45;16.48;;;5.00;99.90;;;;;;5095363;28;20071;-74
2022/03/15 06:37:43;;;;;;;35.53;15.60;;;5.10;99.90;;;;;;5078026;28;20052;-75
2022/03/15 06:40:10;;;;;;;40.13;18.30;;;5.10;99.90;;;;;;5077644;28;20084;-75
2022/03/15 06:42:38;;;;;;;39.25;18.33;;;5.10;99.90;;;;;;5096041;28;20124;-75
2022/03/15 06:45:05;;;;;;;34.38;16.77;;;5.20;99.90;;;;;;5094310;28;20052;-74
2022/03/15 06:47:31;;;;;;;35.25;17.25;;;5.10;99.90;;;;;;5076269;28;20044;-74
2022/03/15 06:49:56;;;;;;;35.53;17.50;;;5.20;99.90;;;;;;5115157;28;20065;-74
2022/03/15 06:52:22;;;;;;;28.65;16.98;;;5.20;99.90;;;;;;5116217;28;20126;-74
2022/03/15 06:54:48;;;;;;;36.45;16.70;;;5.20;99.90;;;;;;5115381;28;20052;-74
2022/03/15 06:57:16;;;;;;;33.85;17.50;;;5.30;99.90;;;;;;5116041;28;20482;-74
2022/03/15 06:59:42;;;;;;;34.83;17.70;;;5.30;99.90;;;;;;5115685;28;20105;-74
2022/03/15 07:02:08;;;;;;;39.33;18.83;;;5.40;99.90;;;;;;5096076;28;20447;-74
2022/03/15 07:04:33;;;;;;;43.17;18.08;;;5.40;99.90;;;;;;5097527;28;20043;-74
2022/03/15 07:06:59;;;;;;;40.28;19.90;;;5.40;99.90;;;;;;5115896;28;20444;-74
2022/03/15 07:09:25;;;;;;;35.95;19.85;;;5.50;99.90;;;;;;5114661;28;20043;-75
2022/03/15 07:11:50;;;;;;;36.15;19.70;;;5.60;99.90;;;;;;5096799;28;20039;-74
2022/03/15 07:14:16;;;;;;;37.35;20.00;;;5.90;99.90;;;;;;5080219;28;20122;-74
2022/03/15 07:16:42;;;;;;;46.10;20.55;;;5.90;99.90;;;;;;5115089;28;20035;-74
2022/03/15 07:19:08;;;;;;;38.33;20.95;;;5.60;99.90;;;;;;5115387;28;20847;-74
2022/03/15 07:21:33;;;;;;;34.35;21.15;;;5.70;99.90;;;;;;5115752;28;20047;-74
2022/03/15 07:23:59;;;;;;;39.95;21.77;;;6.00;99.90;;;;;;5114270;28;20082;-74
2022/03/15 07:26:25;;;;;;;45.65;21.42;;;5.90;99.90;;;;;;5097438;28;20112;-74
2022/03/15 07:28:51;;;;;;;36.38;20.83;;;5.70;99.90;;;;;;5099376;28;20078;-72
2022/03/15 07:31:16;;;;;;;43.15;23.30;;;5.80;99.90;;;;;;5113904;28;20043;-73
2022/03/15 07:33:42;;;;;;;38.80;22.73;;;6.20;99.90;;;;;;5114049;28;20040;-73
2022/03/15 07:36:08;;;;;;;40.63;23.05;;;5.90;99.90;;;;;;5112967;28;20036;-73
2022/03/15 07:38:34;;;;;;;42.25;22.92;;;6.00;99.90;;;;;;5095857;28;20407;-74
2022/03/15 07:41:01;;;;;;;41.67;21.48;;;6.10;99.90;;;;;;5114483;28;20044;-74
2022/03/15 07:43:28;;;;;;;40.55;23.30;;;6.10;99.90;;;;;;5114019;28;20055;-74
2022/03/15 07:45:54;;;;;;;52.88;24.60;;;6.20;99.90;;;;;;5092929;28;20052;-74
2022/03/15 07:48:20;;;;;;;40.95;24.70;;;6.20;99.90;;;;;;5085923;28;20054;-74
2022/03/15 07:50:46;;;;;;;42.95;23.80;;;6.30;99.90;;;;;;5095353;28;20059;-74
2022/03/15 07:53:12;;;;;;;43.90;23.33;;;6.40;99.90;;;;;;5114657;28;20039;-74
2022/03/15 07:55:38;;;;;;;47.85;24.00;;;6.40;99.90;;;;;;5114411;28;20054;-74
2022/03/15 07:58:04;;;;;;;45.42;23.90;;;6.50;99.90;;;;;;5113926;28;20036;-74
2022/03/15 08:00:31;;;;;;;48.15;25.92;;;6.50;99.90;;;;;;5114610;28;20086;-74
2022/03/15 08:02:57;;;;;;;43.40;25.42;;;6.60;99.90;;;;;;5114255;28;20097;-74
2022/03/15 08:05:26;;;;;;;43.67;25.35;;;6.70;99.90;;;;;;5113520;28;20116;-74
2022/03/15 08:07:51;;;;;;;40.80;23.35;;;6.70;99.90;;;;;;5096425;28;20451;-74
2022/03/15 08:10:17;;;;;;;42.33;24.42;;;6.80;99.90;;;;;;5094692;28;20090;-74
2022/03/15 08:12:43;;;;;;;41.50;24.65;;;6.80;99.90;;;;;;5113862;28;20048;-74
2022/03/15 08:15:10;;;;;;;43.33;24.25;;;6.90;99.90;;;;;;5113594;28;20394;-74
2022/03/15 08:17:38;;;;;;;41.38;24.70;;;7.00;99.90;;;;;;5113657;28;20085;-74
2022/03/15 08:20:05;;;;;;;42.90;25.77;;;7.00;99.90;;;;;;5113027;28;20050;-74
2022/03/15 08:22:31;;;;;;;37.90;23.88;;;7.10;99.90;;;;;;5114082;28;20036;-74
2022/03/15 08:24:58;;;;;;;37.58;24.98;;;7.20;99.90;;;;;;5114040;28;20048;-74
2022/03/15 08:27:25;;;;;;;38.63;24.23;;;7.20;99.90;;;;;;5113599;28;20086;-74
2022/03/15 08:29:51;;;;;;;37.13;23.25;;;7.30;99.90;;;;;;5113647;28;20459;-75
2022/03/15 08:32:17;;;;;;;37.55;23.20;;;7.40;99.90;;;;;;5113746;28;20138;-74
2022/03/15 08:34:43;;;;;;;37.45;25.13;;;7.40;99.90;;;;;;5093733;28;20035;-74
2022/03/15 08:37:09;;;;;;;37.78;23.35;;;7.50;99.90;;;;;;5112299;28;20040;-74
2022/03/15 08:39:35;;;;;;;37.10;24.83;;;7.50;99.90;;;;;;5093288;28;20178;-74
2022/03/15 08:42:03;;;;;;;46.38;25.08;;;7.60;99.90;;;;;;5112595;28;20046;-74
2022/03/15 08:44:29;;;;;;;38.67;23.75;;;7.70;99.90;;;;;;5113484;28;20042;-74
2022/03/15 08:46:55;;;;;;;37.83;23.55;;;7.80;99.90;;;;;;5113109;28;20035;-74
2022/03/15 08:49:21;;;;;;;38.28;24.35;;;7.90;99.90;;;;;;5113138;28;20051;-74
2022/03/15 08:51:48;;;;;;;42.55;24.75;;;7.90;99.90;;;;;;5113120;28;20525;-74
2022/03/15 08:54:14;;;;;;;35.85;24.30;;;8.00;99.90;;;;;;5112591;28;20051;-74
2022/03/15 08:56:41;;;;;;;38.50;23.92;;;8.10;99.90;;;;;;5113339;28;20035;-74
2022/03/15 08:59:12;;;;;;;38.88;24.23;;;8.10;99.90;;;;;;5113520;28;20081;-74
2022/03/15 09:01:38;;;;;;;37.58;24.38;;;8.20;99.90;;;;;;5094741;28;20055;-74
2022/03/15 09:04:05;;;;;;;37.08;23.75;;;8.20;99.90;;;;;;5087171;28;20042;-72
2022/03/15 09:06:31;;;;;;;35.20;23.60;;;8.30;99.90;;;;;;5110529;28;20047;-72
2022/03/15 09:09:00;;;;;;;33.80;23.60;;;8.30;99.90;;;;;;5094379;28;20044;-73
2022/03/15 09:11:29;;;;;;;35.92;23.10;;;8.40;99.90;;;;;;5113227;28;20047;-74
2022/03/15 09:13:55;;;;;;;35.95;23.35;;;8.40;99.90;;;;;;5095723;28;20048;-74
2022/03/15 09:16:21;;;;;;;45.10;25.58;;;8.50;99.90;;;;;;5112563;28;20493;-74
2022/03/15 09:18:47;;;;;;;33.13;21.80;;;8.50;99.90;;;;;;5113464;28;20047;-74
2022/03/15 09:21:13;;;;;;;34.75;23.42;;;8.50;99.90;;;;;;5094282;28;20054;-74
2022/03/15 09:23:40;;;;;;;36.22;22.77;;;8.60;99.90;;;;;;5098642;28;20402;-74
2022/03/15 09:26:06;;;;;;;29.02;21.48;;;8.60;99.90;;;;;;5096167;28;20059;-74
2022/03/15 09:28:33;;;;;;;33.13;22.35;;;8.60;99.90;;;;;;5115559;28;20048;-74
2022/03/15 09:31:00;;;;;;;31.88;22.80;;;8.70;99.90;;;;;;5116180;28;20509;-75
2022/03/15 09:33:26;;;;;;;38.45;23.55;;;8.80;99.90;;;;;;5117076;28;20046;-75
2022/03/15 09:35:52;;;;;;;34.17;21.35;;;8.80;99.90;;;;;;5117473;28;20040;-75
2022/03/15 09:38:20;;;;;;;35.67;22.25;;;8.90;99.90;;;;;;5097830;28;20071;-74
2022/03/15 09:40:53;;;;;;;33.28;22.20;;;8.90;99.90;;;;;;5117483;28;20040;-74
2022/03/15 09:43:23;;;;;;;40.13;21.27;;;9.00;99.90;;;;;;5116337;28;20527;-74
2022/03/15 09:45:50;;;;;;;35.55;22.67;;;9.10;99.90;;;;;;5099448;28;20097;-75
2022/03/15 09:48:20;;;;;;;35.35;23.58;;;9.10;99.90;;;;;;5115523;28;20047;-75
2022/03/15 09:50:48;;;;;;;33.22;22.30;;;9.20;99.90;;;;;;5115256;28;20079;-74
2022/03/15 09:53:16;;;;;;;36.45;21.77;;;9.20;99.90;;;;;;5095316;28;20078;-74
2022/03/15 09:55:45;;;;;;;35.15;23.20;;;9.20;99.90;;;;;;5095033;28;20398;-74
2022/03/15 09:58:21;;;;;;;31.10;21.67;;;9.30;99.90;;;;;;5106829;28;20506;-74
2022/03/15 10:00:53;;;;;;;35.50;23.83;;;9.30;99.90;;;;;;5096813;28;20036;-74
2022/03/15 10:03:20;;;;;;;30.45;20.88;;;9.30;99.90;;;;;;5096110;28;20048;-74
2022/03/15 10:05:46;;;;;;;35.13;21.50;;;9.30;99.90;;;;;;5107807;28;20083;-74
2022/03/15 10:08:20;;;;;;;29.02;20.25;;;9.40;99.90;;;;;;5116832;28;20114;-74
2022/03/15 10:10:51;;;;;;;35.30;23.55;;;9.40;99.90;;;;;;5116334;28;20097;-74
2022/03/15 10:13:18;;;;;;;36.67;22.58;;;9.40;99.90;;;;;;5094099;28;20056;-74
2022/03/15 10:15:55;;;;;;;30.67;22.35;;;9.30;99.90;;;;;;5082966;28;20499;-74
2022/03/15 10:18:21;;;;;;;34.78;22.85;;;9.30;99.90;;;;;;5095803;28;20044;-74
2022/03/15 10:20:48;;;;;;;29.85;22.00;;;9.20;99.90;;;;;;5106678;28;20036;-74
2022/03/15 10:23:16;;;;;;;36.97;22.60;;;9.10;99.90;;;;;;5116727;28;20127;-74
2022/03/15 10:25:47;;;;;;;33.13;22.52;;;9.10;99.90;;;;;;5115511;28;20047;-73
2022/03/15 10:28:14;;;;;;;28.48;21.83;;;9.10;99.90;;;;;;5116666;28;20083;-73
2022/03/15 10:30:41;;;;;;;32.60;21.90;;;9.00;99.90;;;;;;5115665;28;20051;-73
2022/03/15 10:33:07;;;;;;;36.38;21.65;;;9.00;99.90;;;;;;5079571;28;20535;-74
2022/03/15 10:35:43;;;;;;;32.70;22.15;;;8.90;99.90;;;;;;5116070;28;20407;-72
2022/03/15 10:38:09;;;;;;;34.67;21.63;;;8.90;99.90;;;;;;5097038;28;20117;-72
2022/03/15 10:40:45;;;;;;;38.00;23.42;;;8.80;99.90;;;;;;5097455;28;20051;-72
2022/03/15 10:43:19;;;;;;;36.83;22.98;;;8.80;99.90;;;;;;5115956;28;20141;-72
2022/03/15 10:45:51;;;;;;;33.22;23.30;;;8.80;99.90;;;;;;5114112;28;20108;-72
2022/03/15 10:48:17;;;;;;;36.45;23.35;;;8.70;99.90;;;;;;5114790;28;20043;-73
2022/03/15 10:51:06;;;;;;;35.25;21.70;;;8.70;99.90;;;;;;5097486;28;20521;-73
2022/03/15 10:54:03;;;;;;;37.15;23.75;;;8.70;99.90;;;;;;5115192;28;20079;-73
2022/03/15 10:56:29;;;;;;;36.10;23.60;;;8.70;99.90;;;;;;5088781;28;20070;-73
2022/03/15 10:59:01;;;;;;;37.33;22.13;;;8.70;99.90;;;;;;5096645;28;20521;-73
2022/03/15 11:01:40;;;;;;;36.70;24.40;;;8.80;99.90;;;;;;5093389;28;20044;-73
2022/03/15 11:04:08;;;;;;;34.58;24.13;;;8.80;99.90;;;;;;5098146;28;20040;-73
2022/03/15 11:06:40;;;;;;;35.00;22.10;;;8.80;99.90;;;;;;5103137;28;20083;-73
2022/03/15 11:09:36;;;;;;;34.58;23.30;;;8.80;99.90;;;;;;5111235;28;20082;-73
2022/03/15 11:12:05;;;;;;;36.17;23.75;;;8.80;99.90;;;;;;5094890;28;20060;-73
2022/03/15 11:14:47;;;;;;;39.47;24.42;;;8.70;99.90;;;;;;5114339;28;20051;-73
2022/03/15 11:17:19;;;;;;;44.10;23.77;;;8.80;99.90;;;;;;5114776;28;20043;-74
2022/03/15 11:19:51;;;;;;;40.17;25.63;;;8.80;99.90;;;;;;5115206;28;20084;-74
2022/03/15 11:22:21;;;;;;;33.95;23.30;;;8.80;99.90;;;;;;5114004;28;20558;-74
2022/03/15 11:25:08;;;;;;;36.50;23.55;;;8.90;99.90;;;;;;5096540;28;20044;-74
2022/03/15 11:27:46;;;;;;;39.10;24.17;;;9.00;99.90;;;;;;5097507;28;20067;-74
2022/03/15 11:30:15;;;;;;;38.28;21.65;;;9.20;99.90;;;;;;5094065;28;20052;-74
2022/03/15 11:32:41;;;;;;;39.13;20.95;;;9.40;99.90;;;;;;5114362;28;20387;-75
2022/03/15 11:35:10;;;;;;;38.88;23.10;;;9.50;99.90;;;;;;5114585;28;20546;-76
2022/03/15 11:37:37;;;;;;;31.85;22.20;;;9.60;99.90;;;;;;5114481;28;20043;-74
2022/03/15 11:40:05;;;;;;;35.67;22.55;;;9.70;99.90;;;;;;5095653;28;20047;-75
2022/03/15 11:42:32;;;;;;;34.20;22.10;;;9.90;99.90;;;;;;5103442;28;20043;-75
2022/03/15 11:45:32;;;;;;;36.25;22.77;;;10.00;99.90;;;;;;5114465;28;20112;-75
2022/03/15 11:48:10;;;;;;;33.25;23.40;;;10.20;99.90;;;;;;5097236;28;20044;-75
2022/03/15 11:51:08;;;;;;;36.20;22.38;;;10.30;99.90;;;;;;5093896;28;20052;-75
2022/03/15 11:54:00;;;;;;;32.08;20.98;;;10.50;99.90;;;;;;5115082;28;20115;-74
2022/03/15 11:56:43;;;;;;;28.63;19.40;;;10.70;99.90;;;;;;5114621;28;20047;-75
2022/03/15 11:59:09;;;;;;;30.77;19.40;;;10.80;99.90;;;;;;5096330;28;20052;-75
2022/03/15 12:01:52;;;;;;;28.60;19.42;;;10.90;99.90;;;;;;5113832;28;20384;-75
2022/03/15 12:04:27;;;;;;;29.63;18.63;;;11.00;99.90;;;;;;5095843;28;20043;-74
2022/03/15 12:07:00;;;;;;;30.33;18.52;;;11.10;99.90;;;;;;5114168;28;20568;-74
2022/03/15 12:09:31;;;;;;;28.70;17.77;;;11.10;99.90;;;;;;5079998;28;20451;-74
2022/03/15 12:12:18;;;;;;;27.33;17.50;;;11.10;99.90;;;;;;5113454;28;20123;-75
2022/03/15 12:14:51;;;;;;;24.05;16.05;;;11.20;99.90;;;;;;5114271;28;20372;-75
2022/03/15 12:17:18;;;;;;;26.25;18.05;;;11.20;99.90;;;;;;5113902;28;20043;-75
2022/03/15 12:19:48;;;;;;;27.73;17.38;;;11.20;99.90;;;;;;5113643;28;20581;-75
2022/03/15 12:22:37;;;;;;;26.98;15.90;;;11.30;99.90;;;;;;5113968;28;20040;-75
2022/03/15 12:25:07;;;;;;;24.60;14.07;;;11.30;99.90;;;;;;5112680;28;20062;-75
2022/03/15 12:27:40;;;;;;;24.42;14.77;;;11.40;99.90;;;;;;5112875;28;20071;-75
2022/03/15 12:30:08;;;;;;;24.17;12.35;;;11.40;99.90;;;;;;5095254;28;20470;-75
2022/03/15 12:32:34;;;;;;;21.17;12.73;;;11.50;99.90;;;;;;5113318;28;20039;-75
2022/03/15 12:35:00;;;;;;;20.20;11.68;;;11.50;99.90;;;;;;5113552;28;20407;-75
2022/03/15 12:37:37;;;;;;;15.45;10.98;;;11.60;99.90;;;;;;5114255;28;20043;-75
2022/03/15 12:40:09;;;;;;;20.88;10.43;;;11.60;99.90;;;;;;5094787;28;20051;-75
2022/03/15 12:42:35;;;;;;;16.77;8.30;;;11.80;99.90;;;;;;5113981;28;20118;-75